Flight Track Log - Related Links

Times and Time Zones

All times are in EDT time to prevent confusion due to time zone crossing. See the ASQ5458 flight status page for this flight to view local times or setup timezone preferences in your user account.


Time Position Orientation Groundspeed Altitude Reporting Facility
EDT Latitude Longitude Course Direction KTS MPH feet Rate Location/Type
Thu 05:56:53 PM 33.6500 -84.4000 90° East 163 188 2,200  Level Atlanta TRACON
Thu 05:57:53 PM 33.6500 -84.3167 90° East 236 272 3,800 1,950 Climbing Atlanta TRACON
Thu 05:58:53 PM 33.6667 -84.2333 76° East 274 315 6,100 2,400 Climbing Atlanta TRACON
Thu 05:59:53 PM 33.7333 -84.1833 32° Northeast 309 356 8,600 2,053 Climbing Atlanta TRACON
Thu 06:00:47 PM 33.8000 -84.1833 360° North 317 365 10,000 1,714 Climbing Atlanta TRACON
Thu 06:02:41 PM 33.9819 -84.2767 337° Northwest 387 445 13,400 1,862 Climbing Atlanta Center
Thu 06:03:41 PM 34.0861 -84.2794 359° North 358 412 15,400 2,000 Climbing Atlanta Center
Thu 06:04:41 PM 34.1969 -84.2800 360° North 385 443 17,400 1,750 Climbing Atlanta Center
Thu 06:05:41 PM 34.3053 -84.2778 North 392 451 18,900 1,550 Climbing Atlanta Center
Thu 06:06:41 PM 34.4203 -84.2503 11° North 408 470 20,500 1,800 Climbing Atlanta Center
Thu 06:07:41 PM 34.5331 -84.2228 11° North 408 470 22,500 1,750 Climbing Atlanta Center
Thu 06:08:41 PM 34.6478 -84.1953 11° North 414 476 24,000 1,250 Climbing Atlanta Center
Thu 06:09:41 PM 34.7625 -84.1703 10° North 414 476 25,000 1,000 Climbing Atlanta Center
Thu 06:10:41 PM 34.8836 -84.1425 11° North 426 490 26,000 1,100 Climbing Atlanta Center
Thu 06:11:41 PM 35.0067 -84.1122 11° North 437 503 27,200 1,450 Climbing Atlanta Center
Thu 06:12:41 PM 35.1300 -84.0844 10° North 444 511 28,900 1,300 Climbing Atlanta Center
Thu 06:13:41 PM 35.2508 -84.0539 12° North 444 511 29,800 800 Climbing Atlanta Center
Thu 06:14:41 PM 35.3719 -84.0233 12° North 444 511 30,500 600 Climbing Atlanta Center
Thu 06:15:41 PM 35.4972 -83.9928 11° North 449 517 31,000 250 Climbing Atlanta Center
Thu 06:16:41 PM 35.6306 -83.9622 11° North 455 524 31,000  Level Atlanta Center
Thu 06:17:41 PM 35.7600 -83.9314 11° North 465 535 31,000 50 Level Atlanta Center
Thu 06:18:41 PM 35.8872 -83.8978 12° North 471 542 31,100 800 Climbing Atlanta Center
Thu 06:19:41 PM 36.0039 -83.8333 24° Northeast 454 522 32,600 950 Climbing Atlanta Center
Thu 06:20:41 PM 36.1164 -83.7611 27° Northeast 448 516 33,000 200 Climbing Atlanta Center
Thu 06:21:41 PM 36.2331 -83.6886 27° Northeast 448 516 33,000  Level Atlanta Center
Thu 06:23:11 PM 36.4017 -83.5794 28° Northeast 483 556 33,000  Level Indianapolis Center
Thu 06:24:13 PM 36.5281 -83.5006 27° Northeast 493 567 33,000  Level Indianapolis Center
Thu 06:25:15 PM 36.6469 -83.4200 29° Northeast 484 557 33,000  Level Indianapolis Center
Thu 06:26:16 PM 36.7556 -83.3175 37° Northeast 487 560 33,000  Level Indianapolis Center
Thu 06:27:18 PM 36.8831 -83.1975 37° Northeast 487 560 33,000  Level Indianapolis Center
Thu 06:28:20 PM 36.9939 -83.0944 37° Northeast 490 564 33,000  Level Indianapolis Center
Thu 06:29:22 PM 37.1067 -82.9875 37° Northeast 496 571 33,000  Level Indianapolis Center
Thu 06:30:24 PM 37.2164 -82.8803 38° Northeast 494 568 33,000  Level Indianapolis Center
Thu 06:31:25 PM 37.3275 -82.7744 37° Northeast 496 571 33,000  Level Indianapolis Center
Thu 06:32:27 PM 37.4389 -82.6669 37° Northeast 501 577 33,000  Level Indianapolis Center
Thu 06:33:29 PM 37.5497 -82.5600 37° Northeast 500 575 33,000  Level Indianapolis Center
Thu 06:34:31 PM 37.6594 -82.4511 38° Northeast 502 578 33,000  Level Indianapolis Center
Thu 06:35:33 PM 37.7886 -82.3250 38° Northeast 502 578 33,000  Level Indianapolis Center
Thu 06:36:35 PM 37.9000 -82.2183 37° Northeast 500 575 33,000  Level Indianapolis Center
Thu 06:37:37 PM 37.9964 -82.1217 38° Northeast 501 577 33,000  Level Indianapolis Center
Thu 06:38:39 PM 38.1278 -81.9925 38° Northeast 498 573 33,000  Level Indianapolis Center
Thu 06:39:40 PM 38.2369 -81.8833 38° Northeast 499 574 33,000  Level Indianapolis Center
Thu 06:40:42 PM 38.3464 -81.7756 38° Northeast 496 571 33,000  Level Indianapolis Center
Thu 06:41:44 PM 38.4594 -81.6761 35° Northeast 494 568 33,000  Level Indianapolis Center
Thu 06:42:46 PM 38.5731 -81.5786 34° Northeast 494 568 33,000  Level Indianapolis Center
Thu 06:43:48 PM 38.7006 -81.4694 34° Northeast 496 571 33,000  Level Indianapolis Center
Thu 06:44:50 PM 38.8175 -81.3672 34° Northeast 500 575 33,000  Level Indianapolis Center
Thu 06:45:52 PM 38.9308 -81.2672 34° Northeast 496 571 33,000  Level Indianapolis Center
Thu 06:46:53 PM 39.0433 -81.1689 34° Northeast 491 565 33,000  Level Indianapolis Center
Thu 06:47:55 PM 39.1558 -81.0703 34° Northeast 490 564 33,000  Level Indianapolis Center
Thu 06:48:57 PM 39.2686 -80.9697 35° Northeast 493 567 33,000  Level Indianapolis Center
Thu 06:49:59 PM 39.4011 -80.8511 35° Northeast 484 557 33,000  Level Indianapolis Center
Thu 06:51:01 PM 39.5136 -80.7514 34° Northeast 486 559 33,000  Level Indianapolis Center
Thu 06:52:03 PM 39.6256 -80.6517 34° Northeast 488 562 33,000  Level Indianapolis Center
Thu 06:53:04 PM 39.7469 -80.5733 26° Northeast 493 567 33,000  Level Indianapolis Center
Thu 06:54:06 PM 39.8728 -80.5278 16° North 477 549 33,000  Level Indianapolis Center
Thu 06:55:08 PM 40.0047 -80.4858 14° North 477 549 33,000  Level Indianapolis Center
Thu 06:56:10 PM 40.1325 -80.4425 15° North 473 544 33,000  Level Indianapolis Center
Thu 06:57:11 PM 40.2633 -80.3986 14° North 479 551 33,000  Level Indianapolis Center
Thu 06:58:13 PM 40.4239 -80.3467 14° North 485 558 33,000  Level Indianapolis Center
Thu 06:59:14 PM 40.5442 -80.3097 13° North 479 551 33,000  Level Cleveland Center
Thu 07:00:14 PM 40.6775 -80.2656 14° North 486 559 33,000  Level Cleveland Center
Thu 07:01:14 PM 40.8108 -80.2156 16° North 491 565 33,000  Level Cleveland Center
Thu 07:02:14 PM 40.9397 -80.1461 22° Northeast 491 565 33,000  Level Cleveland Center
Thu 07:03:14 PM 41.0689 -80.0764 22° Northeast 496 571 33,000  Level Cleveland Center
Thu 07:04:14 PM 41.1956 -80.0064 23° Northeast 496 571 33,000  Level Cleveland Center
Thu 07:05:14 PM 41.3203 -79.9417 21° North 491 565 33,000  Level Cleveland Center
Thu 07:06:14 PM 41.4492 -79.8683 23° Northeast 491 565 33,000  Level Cleveland Center
Thu 07:07:14 PM 41.5758 -79.7978 23° Northeast 491 565 33,000 -550 Level Cleveland Center
Thu 07:08:14 PM 41.7067 -79.7236 23° Northeast 497 572 31,900 -1,150 Descending Cleveland Center
Thu 07:09:14 PM 41.8311 -79.6525 23° Northeast 491 565 30,700 -1,150 Descending Cleveland Center
Thu 07:10:14 PM 41.9597 -79.5808 23° Northeast 491 565 29,600 -1,150 Descending Cleveland Center
Thu 07:11:14 PM 42.0864 -79.5089 23° Northeast 491 565 28,400 -1,200 Descending Cleveland Center
Thu 07:12:14 PM 42.2128 -79.4367 23° Northeast 491 565 27,200 -1,200 Descending Cleveland Center
Thu 07:13:14 PM 42.3372 -79.3669 22° Northeast 491 565 26,000 -1,200 Descending Cleveland Center
Thu 07:14:14 PM 42.4614 -79.2942 23° Northeast 491 565 24,800 -1,250 Descending Cleveland Center
Thu 07:15:14 PM 42.5967 -79.2831 North 481 554 23,500 -1,250 Descending Cleveland Center
Thu 07:16:14 PM 42.7344 -79.2969 356° North 481 554 22,300 -1,450 Descending Cleveland Center
Thu 07:17:14 PM 42.8681 -79.3114 355° North 487 560 20,600 -2,149 Descending Cleveland Center
Thu 07:18:28 PM 43.0167 -79.3167 359° North 450 518 17,500 -2,328 Descending Toronto Center
Thu 07:19:28 PM 43.1333 -79.3167 360° North 420 483 15,400 -2,000 Descending Toronto Center
Thu 07:20:28 PM 43.2500 -79.3333 354° North 400 460 13,500 -1,600 Descending Toronto Center
Thu 07:21:28 PM 43.3333 -79.3500 352° North 350 403 12,200 -900 Descending Toronto Center
Thu 07:22:28 PM 43.4167 -79.4000 336° Northwest 320 368 11,700 -1,100 Descending Toronto Center
Thu 07:23:28 PM 43.4833 -79.4500 331° Northwest 290 334 10,000 -1,850 Descending Toronto Center
Thu 07:24:28 PM 43.5667 -79.5000 337° Northwest 290 334 8,000 -1,300 Descending Toronto Center
Thu 07:25:28 PM 43.6333 -79.4500 28° Northeast 290 334 7,400 -500 Descending Toronto Center
Thu 07:26:28 PM 43.6833 -79.3833 44° Northeast 280 322 7,000 -600 Descending Toronto Center
Thu 07:27:28 PM 43.7500 -79.2833 47° Northeast 290 334 6,200 -1,000 Descending Toronto Center
Thu 07:28:28 PM 43.8000 -79.2167 44° Northeast 280 322 5,000 -1,100 Descending Toronto Center
Thu 07:29:28 PM 43.8500 -79.2333 346° North 240 276 4,000 -900 Descending Toronto Center
Thu 07:30:28 PM 43.8500 -79.3167 270° West 180 207 3,200 -500 Descending Toronto Center
Thu 07:31:28 PM 43.8333 -79.3333 216° Southwest 140 161 3,000 -100 Descending Toronto Center
Thu 07:32:28 PM 43.8167 -79.3833 245° Southwest 130 150 3,000  Level Toronto Center
Thu 07:33:28 PM 43.7833 -79.4000 200° South 130 150 3,000  Level Toronto Center
Thu 07:34:28 PM 43.7667 -79.4500 245° Southwest 130 150 3,000 -350 Level Toronto Center
Thu 07:35:28 PM 43.7333 -79.5000 227° Southwest 130 150 2,300 -700 Descending Toronto Center
Thu 07:36:28 PM 43.7000 -79.5167 200° South 140 161 1,600 -700 Descending Toronto Center
Thu 07:37:28 PM 43.6833 -79.5667 245° Southwest 140 161 900 -700 Descending Toronto Center

Login

Don't have an account? Register now (free) for customized features, flight alerts, and more!